首页
METAR-TAF:

METAR-TAF

机场 :

大马士革国际机场

大马士革, 叙利亚

纬度: 33-25N, 经度: 036-31E, 海拔: 608米

当前天气观测

该预报发布于16分钟前的20:00 UTC
风速3节,风向西转西北
温度 11°C
湿度 82%
气压 1022 hPa
能见度10公里或以上
1500米以下无云,无积雨云

METAR: OSDI 202000Z 30003KT CAVOK 11/08 Q1022

时间: 22:16 (20:16 UTC)

预报

该预报发布于4小时和16分钟前的16:00 UTC
预报有效从20日的 18点(UTC)到 21日的 24点(UTC)
风速3节,风向多变
能见度10公里或以上
1500米以下无云,无积雨云
短暂存在
从 21日的 09点(UTC)到 21日的 24点(UTC)
风速8节,风向东转东北
能见度10公里或以上
少量云层高于3000英尺

TAF: OSDI 201600Z 2018/2124 VRB03KT CAVOK TEMPO 2109/2124 06008KT 9999 FEW030

超过4000个机场的气象观测和天气预报(METAR&TAF报告)。

可查询的气象台以黄色和红色小点在地图上表示。

将鼠标移到小点上方,可查看气象台名称。

然后点击查看天气观测和预报。

如需切换地图:点击带黑十字的绿色按钮放大地图;点击带横线的绿色按钮缩小地图;或者点击绿色箭头查看邻近地区的地图。


METAR-TAF: